Tzoanna Vi — SYHY — position and weather

sailwx.info

Track history (hours):
 
Tides and Currents Weather Stations Pressure Air Temp Water Temp Dewpoint Dewpoint Depression Visibility Wind Speed Wind Dir Waves Ship Positions

Tzoanna Vi

Last reported at 2014-Nov-22 08:20 UTC. Time now 2014-Nov-23 11:14 UTC.
Position N 37°56' E 024°31'.

Length 84 m; draft 5.5 m.

Type: Cargo ship. MMSI: 237991700.

Date/timePositionNaut miles runAvg speedWind from/ knotsBaromVisibWave heightAir tempDewpointWater temp
2014-Nov-22 08:20N 37°56' E 024°31'16 8.1
2014-Nov-22 06:23N 38°01' E 024°12'8 8.8
2014-Nov-22 05:31N 38°07' E 024°07'3 0.1
2014-Nov-21 07:23N 38°05' E 024°09'7 8.4
2014-Nov-21 06:33N 37°59' E 024°13'16 0.3
2014-Nov-19 05:27N 37°57' E 024°33'8 8.6
2014-Nov-19 04:33N 37°54' E 024°24'9 8.8
2014-Nov-19 03:33N 37°57' E 024°14'8 8.0
2014-Nov-19 02:33N 38°04' E 024°09'4 0.2
2014-Nov-18 05:23N 38°08' E 024°07'23 8.3
2014-Nov-18 02:33N 37°56' E 024°32'  
2014-Nov-14 22:30N 37°52' E 024°32'16 8.3
2014-Nov-14 20:32N 37°37' E 024°26'11 8.5
2014-Nov-14 19:12N 37°26' E 024°21'5 8.2
2014-Nov-14 18:32N 37°21' E 024°20'9 8.5
2014-Nov-14 17:31N 37°12' E 024°19'8 8.4
2014-Nov-14 16:33N 37°04' E 024°19'9 8.5
2014-Nov-14 15:33N 36°55' E 024°19'8 8.4
2014-Nov-14 14:33N 36°47' E 024°19'8 4.0
2014-Nov-14 12:33N 36°39' E 024°21'0 0.0
2014-Nov-14 11:33N 36°39' E 024°21'0 0.0
2014-Nov-14 10:33N 36°39' E 024°21'0 0.0
2014-Nov-14 09:33N 36°39' E 024°21'0 0.4
2014-Nov-14 08:33N 36°39' E 024°21'0 0.0
2014-Nov-14 07:34N 36°39' E 024°21'0 0.0
2014-Nov-14 06:33N 36°39' E 024°21'0 0.1
2014-Nov-14 05:33N 36°39' E 024°21'1 1.1
2014-Nov-14 04:34N 36°38' E 024°20'8 7.8
2014-Nov-14 03:33N 36°46' E 024°19'10 9.7
2014-Nov-14 02:33N 36°56' E 024°20'9 9.3
2014-Nov-14 01:32N 37°05' E 024°23'9 8.8
2014-Nov-14 00:33N 37°13' E 024°26'9 9.2
2014-Nov-13 23:33N 37°21' E 024°32'10 9.5
2014-Nov-13 22:34N 37°31' E 024°33'10 9.6
2014-Nov-13 21:33N 37°40' E 024°34'  
Track history (hours):
 
Tides and Currents Weather Stations Pressure Air Temp Water Temp Dewpoint Dewpoint Depression Visibility Wind Speed Wind Dir Waves Ship Positions

Tzoanna Vi

Last reported at 2014-Nov-22 08:20 UTC. Time now 2014-Nov-23 11:14 UTC.
Position N 37°56' E 024°31'.

Length 84 m; draft 5.5 m.

Type: Cargo ship. MMSI: 237991700.

Date/timePositionNaut miles runAvg speedWind from/ knotsBaromVisibWave heightAir tempDewpointWater temp
2014-Nov-22 08:20N 37°56' E 024°31'16 8.1
2014-Nov-22 06:23N 38°01' E 024°12'8 8.8
2014-Nov-22 05:31N 38°07' E 024°07'3 0.1
2014-Nov-21 07:23N 38°05' E 024°09'7 8.4
2014-Nov-21 06:33N 37°59' E 024°13'16 0.3
2014-Nov-19 05:27N 37°57' E 024°33'8 8.6
2014-Nov-19 04:33N 37°54' E 024°24'9 8.8
2014-Nov-19 03:33N 37°57' E 024°14'8 8.0
2014-Nov-19 02:33N 38°04' E 024°09'4 0.2
2014-Nov-18 05:23N 38°08' E 024°07'23 8.3
2014-Nov-18 02:33N 37°56' E 024°32'  
2014-Nov-14 22:30N 37°52' E 024°32'16 8.3
2014-Nov-14 20:32N 37°37' E 024°26'11 8.5
2014-Nov-14 19:12N 37°26' E 024°21'5 8.2
2014-Nov-14 18:32N 37°21' E 024°20'9 8.5
2014-Nov-14 17:31N 37°12' E 024°19'8 8.4
2014-Nov-14 16:33N 37°04' E 024°19'9 8.5
2014-Nov-14 15:33N 36°55' E 024°19'8 8.4
2014-Nov-14 14:33N 36°47' E 024°19'8 4.0
2014-Nov-14 12:33N 36°39' E 024°21'0 0.0
2014-Nov-14 11:33N 36°39' E 024°21'0 0.0
2014-Nov-14 10:33N 36°39' E 024°21'0 0.0
2014-Nov-14 09:33N 36°39' E 024°21'0 0.4
2014-Nov-14 08:33N 36°39' E 024°21'0 0.0
2014-Nov-14 07:34N 36°39' E 024°21'0 0.0
2014-Nov-14 06:33N 36°39' E 024°21'0 0.1
2014-Nov-14 05:33N 36°39' E 024°21'1 1.1
2014-Nov-14 04:34N 36°38' E 024°20'8 7.8
2014-Nov-14 03:33N 36°46' E 024°19'10 9.7
2014-Nov-14 02:33N 36°56' E 024°20'9 9.3
2014-Nov-14 01:32N 37°05' E 024°23'9 8.8
2014-Nov-14 00:33N 37°13' E 024°26'9 9.2
2014-Nov-13 23:33N 37°21' E 024°32'10 9.5
2014-Nov-13 22:34N 37°31' E 024°33'10 9.6
2014-Nov-13 21:33N 37°40' E 024°34'  

Dump ship's entire track history